sensor_id;sensor_type;location;lat;lon;timestamp;P1;durP1;ratioP1;P2;durP2;ratioP2
57947;SDS011;43754;56.992;24.292;2023-03-18T00:02:00;7.72;;;2.25;;
57947;SDS011;43754;56.992;24.292;2023-03-18T00:04:35;9.45;;;3.30;;
57947;SDS011;43754;56.992;24.292;2023-03-18T00:07:07;9.10;;;2.35;;
57947;SDS011;43754;56.992;24.292;2023-03-18T00:09:40;8.23;;;2.35;;
57947;SDS011;43754;56.992;24.292;2023-03-18T00:12:12;4.95;;;1.92;;
57947;SDS011;43754;56.992;24.292;2023-03-18T00:14:44;8.07;;;2.42;;
57947;SDS011;43754;56.992;24.292;2023-03-18T00:17:16;4.55;;;1.88;;
57947;SDS011;43754;56.992;24.292;2023-03-18T00:19:50;6.20;;;1.90;;
57947;SDS011;43754;56.992;24.292;2023-03-18T00:22:22;6.28;;;2.08;;
57947;SDS011;43754;56.992;24.292;2023-03-18T00:24:55;5.85;;;2.38;;
57947;SDS011;43754;56.992;24.292;2023-03-18T00:27:27;7.65;;;2.17;;
57947;SDS011;43754;56.992;24.292;2023-03-18T00:29:59;4.93;;;1.65;;
57947;SDS011;43754;56.992;24.292;2023-03-18T00:32:32;4.93;;;1.85;;
57947;SDS011;43754;56.992;24.292;2023-03-18T00:35:06;3.80;;;1.63;;
57947;SDS011;43754;56.992;24.292;2023-03-18T00:37:39;6.20;;;2.08;;
57947;SDS011;43754;56.992;24.292;2023-03-18T00:40:12;7.20;;;2.97;;
57947;SDS011;43754;56.992;24.292;2023-03-18T00:42:51;7.50;;;2.60;;
57947;SDS011;43754;56.992;24.292;2023-03-18T00:45:28;4.03;;;2.10;;
57947;SDS011;43754;56.992;24.292;2023-03-18T00:48:00;5.82;;;2.10;;
57947;SDS011;43754;56.992;24.292;2023-03-18T00:50:33;6.85;;;2.20;;
57947;SDS011;43754;56.992;24.292;2023-03-18T00:53:07;6.68;;;2.20;;
57947;SDS011;43754;56.992;24.292;2023-03-18T00:55:39;5.10;;;2.03;;
57947;SDS011;43754;56.992;24.292;2023-03-18T00:58:11;3.28;;;1.77;;
57947;SDS011;43754;56.992;24.292;2023-03-18T01:00:43;5.53;;;1.80;;
57947;SDS011;43754;56.992;24.292;2023-03-18T01:03:16;5.97;;;1.67;;
57947;SDS011;43754;56.992;24.292;2023-03-18T01:05:49;4.97;;;2.05;;
57947;SDS011;43754;56.992;24.292;2023-03-18T01:08:22;3.38;;;1.50;;
57947;SDS011;43754;56.992;24.292;2023-03-18T01:10:56;4.15;;;1.70;;
57947;SDS011;43754;56.992;24.292;2023-03-18T01:13:28;6.40;;;2.10;;
57947;SDS011;43754;56.992;24.292;2023-03-18T01:16:01;4.68;;;1.88;;
57947;SDS011;43754;56.992;24.292;2023-03-18T01:18:33;6.60;;;2.08;;
57947;SDS011;43754;56.992;24.292;2023-03-18T01:21:08;6.28;;;1.63;;
57947;SDS011;43754;56.992;24.292;2023-03-18T01:23:46;5.00;;;1.98;;
57947;SDS011;43754;56.992;24.292;2023-03-18T01:26:19;6.45;;;2.67;;
57947;SDS011;43754;56.992;24.292;2023-03-18T01:28:51;8.32;;;2.83;;
57947;SDS011;43754;56.992;24.292;2023-03-18T01:31:24;7.38;;;2.20;;
57947;SDS011;43754;56.992;24.292;2023-03-18T01:34:00;4.82;;;2.08;;
57947;SDS011;43754;56.992;24.292;2023-03-18T01:36:42;5.22;;;2.00;;
57947;SDS011;43754;56.992;24.292;2023-03-18T01:39:15;7.28;;;2.78;;
57947;SDS011;43754;56.992;24.292;2023-03-18T01:41:48;5.60;;;2.25;;
57947;SDS011;43754;56.992;24.292;2023-03-18T01:44:29;4.25;;;2.10;;
57947;SDS011;43754;56.992;24.292;2023-03-18T01:47:03;6.28;;;1.90;;
57947;SDS011;43754;56.992;24.292;2023-03-18T01:49:37;4.28;;;2.15;;
57947;SDS011;43754;56.992;24.292;2023-03-18T01:52:15;5.32;;;1.65;;
57947;SDS011;43754;56.992;24.292;2023-03-18T01:54:51;4.57;;;2.08;;
57947;SDS011;43754;56.992;24.292;2023-03-18T01:57:29;8.67;;;1.77;;
57947;SDS011;43754;56.992;24.292;2023-03-18T02:00:04;5.78;;;2.45;;
57947;SDS011;43754;56.992;24.292;2023-03-18T02:02:44;8.13;;;2.33;;
57947;SDS011;43754;56.992;24.292;2023-03-18T02:05:19;10.60;;;2.05;;
57947;SDS011;43754;56.992;24.292;2023-03-18T02:07:55;6.85;;;2.30;;
57947;SDS011;43754;56.992;24.292;2023-03-18T02:10:28;4.95;;;2.08;;
57947;SDS011;43754;56.992;24.292;2023-03-18T02:13:03;5.40;;;2.25;;
57947;SDS011;43754;56.992;24.292;2023-03-18T02:15:43;4.53;;;1.98;;
57947;SDS011;43754;56.992;24.292;2023-03-18T02:18:21;5.32;;;1.70;;
57947;SDS011;43754;56.992;24.292;2023-03-18T02:21:01;6.97;;;2.08;;
57947;SDS011;43754;56.992;24.292;2023-03-18T02:23:59;6.38;;;2.05;;
57947;SDS011;43754;56.992;24.292;2023-03-18T02:26:40;5.80;;;2.25;;
57947;SDS011;43754;56.992;24.292;2023-03-18T02:29:23;6.80;;;2.13;;
57947;SDS011;43754;56.992;24.292;2023-03-18T02:32:03;4.70;;;2.05;;
57947;SDS011;43754;56.992;24.292;2023-03-18T02:34:37;7.95;;;2.15;;
57947;SDS011;43754;56.992;24.292;2023-03-18T02:37:12;3.50;;;1.40;;
57947;SDS011;43754;56.992;24.292;2023-03-18T02:39:46;6.25;;;1.88;;
57947;SDS011;43754;56.992;24.292;2023-03-18T02:42:26;2.67;;;1.60;;
57947;SDS011;43754;56.992;24.292;2023-03-18T02:45:00;6.25;;;1.70;;
57947;SDS011;43754;56.992;24.292;2023-03-18T02:47:56;6.20;;;1.85;;
57947;SDS011;43754;56.992;24.292;2023-03-18T02:50:30;6.60;;;2.08;;
57947;SDS011;43754;56.992;24.292;2023-03-18T02:53:03;4.80;;;1.60;;
57947;SDS011;43754;56.992;24.292;2023-03-18T02:55:35;4.32;;;1.75;;
57947;SDS011;43754;56.992;24.292;2023-03-18T02:58:07;4.25;;;1.77;;
57947;SDS011;43754;56.992;24.292;2023-03-18T03:00:41;5.60;;;2.30;;
57947;SDS011;43754;56.992;24.292;2023-03-18T03:03:13;3.72;;;2.20;;
57947;SDS011;43754;56.992;24.292;2023-03-18T03:05:46;6.18;;;2.05;;
57947;SDS011;43754;56.992;24.292;2023-03-18T03:08:18;6.38;;;2.00;;
57947;SDS011;43754;56.992;24.292;2023-03-18T03:10:51;8.02;;;2.13;;
57947;SDS011;43754;56.992;24.292;2023-03-18T03:13:23;6.95;;;2.40;;
57947;SDS011;43754;56.992;24.292;2023-03-18T03:15:58;8.50;;;1.95;;
57947;SDS011;43754;56.992;24.292;2023-03-18T03:18:31;6.57;;;1.95;;
57947;SDS011;43754;56.992;24.292;2023-03-18T03:21:03;6.22;;;1.65;;
57947;SDS011;43754;56.992;24.292;2023-03-18T03:23:36;6.50;;;2.05;;
57947;SDS011;43754;56.992;24.292;2023-03-18T03:26:10;6.45;;;2.13;;
57947;SDS011;43754;56.992;24.292;2023-03-18T03:28:42;4.50;;;2.00;;
57947;SDS011;43754;56.992;24.292;2023-03-18T03:31:16;4.30;;;1.75;;
57947;SDS011;43754;56.992;24.292;2023-03-18T03:33:48;5.47;;;1.80;;
57947;SDS011;43754;56.992;24.292;2023-03-18T03:36:20;5.63;;;2.03;;
57947;SDS011;43754;56.992;24.292;2023-03-18T03:38:52;6.07;;;2.22;;
57947;SDS011;43754;56.992;24.292;2023-03-18T03:41:24;9.82;;;2.75;;
57947;SDS011;43754;56.992;24.292;2023-03-18T03:43:56;5.28;;;1.70;;
57947;SDS011;43754;56.992;24.292;2023-03-18T03:46:30;7.88;;;1.95;;
57947;SDS011;43754;56.992;24.292;2023-03-18T03:49:03;6.30;;;2.08;;
57947;SDS011;43754;56.992;24.292;2023-03-18T03:51:35;4.38;;;1.95;;
57947;SDS011;43754;56.992;24.292;2023-03-18T03:54:07;7.18;;;2.38;;
57947;SDS011;43754;56.992;24.292;2023-03-18T03:56:39;5.97;;;2.60;;
57947;SDS011;43754;56.992;24.292;2023-03-18T03:59:11;5.43;;;1.73;;
57947;SDS011;43754;56.992;24.292;2023-03-18T04:02:16;4.55;;;1.85;;
57947;SDS011;43754;56.992;24.292;2023-03-18T04:04:49;3.50;;;1.95;;
57947;SDS011;43754;56.992;24.292;2023-03-18T04:07:29;7.18;;;2.20;;
57947;SDS011;43754;56.992;24.292;2023-03-18T04:10:02;6.07;;;2.03;;
57947;SDS011;43754;56.992;24.292;2023-03-18T04:12:35;5.88;;;2.05;;
57947;SDS011;43754;56.992;24.292;2023-03-18T04:15:07;2.67;;;1.67;;
57947;SDS011;43754;56.992;24.292;2023-03-18T04:17:42;5.22;;;1.92;;
57947;SDS011;43754;56.992;24.292;2023-03-18T04:20:19;4.13;;;2.22;;
57947;SDS011;43754;56.992;24.292;2023-03-18T04:22:52;7.50;;;2.25;;
57947;SDS011;43754;56.992;24.292;2023-03-18T04:25:27;4.90;;;1.80;;
57947;SDS011;43754;56.992;24.292;2023-03-18T04:28:00;2.58;;;1.45;;
57947;SDS011;43754;56.992;24.292;2023-03-18T04:30:32;5.47;;;1.45;;
57947;SDS011;43754;56.992;24.292;2023-03-18T04:33:11;3.42;;;1.77;;
57947;SDS011;43754;56.992;24.292;2023-03-18T04:35:44;6.53;;;1.80;;
57947;SDS011;43754;56.992;24.292;2023-03-18T04:38:20;5.55;;;1.67;;
57947;SDS011;43754;56.992;24.292;2023-03-18T04:40:54;3.88;;;1.83;;
57947;SDS011;43754;56.992;24.292;2023-03-18T04:43:27;5.72;;;1.98;;
57947;SDS011;43754;56.992;24.292;2023-03-18T04:45:59;4.30;;;1.73;;
57947;SDS011;43754;56.992;24.292;2023-03-18T04:48:34;6.68;;;1.60;;
57947;SDS011;43754;56.992;24.292;2023-03-18T04:51:09;3.35;;;1.42;;
57947;SDS011;43754;56.992;24.292;2023-03-18T04:53:41;7.47;;;1.60;;
57947;SDS011;43754;56.992;24.292;2023-03-18T04:56:14;4.90;;;1.67;;
57947;SDS011;43754;56.992;24.292;2023-03-18T04:58:53;7.03;;;2.10;;
57947;SDS011;43754;56.992;24.292;2023-03-18T05:01:30;4.28;;;1.65;;
57947;SDS011;43754;56.992;24.292;2023-03-18T05:04:04;3.20;;;1.80;;
57947;SDS011;43754;56.992;24.292;2023-03-18T05:06:48;5.32;;;2.40;;
57947;SDS011;43754;56.992;24.292;2023-03-18T05:09:20;5.10;;;2.03;;
57947;SDS011;43754;56.992;24.292;2023-03-18T05:11:52;3.47;;;1.73;;
57947;SDS011;43754;56.992;24.292;2023-03-18T05:14:30;4.50;;;1.63;;
57947;SDS011;43754;56.992;24.292;2023-03-18T05:17:03;5.68;;;1.80;;
57947;SDS011;43754;56.992;24.292;2023-03-18T05:19:40;5.38;;;1.38;;
57947;SDS011;43754;56.992;24.292;2023-03-18T05:22:18;6.40;;;1.92;;
57947;SDS011;43754;56.992;24.292;2023-03-18T05:24:56;4.22;;;1.67;;
57947;SDS011;43754;56.992;24.292;2023-03-18T05:27:30;4.72;;;1.85;;
57947;SDS011;43754;56.992;24.292;2023-03-18T05:30:12;5.82;;;2.33;;
57947;SDS011;43754;56.992;24.292;2023-03-18T05:32:49;6.20;;;1.50;;
57947;SDS011;43754;56.992;24.292;2023-03-18T05:35:25;10.02;;;4.30;;
57947;SDS011;43754;56.992;24.292;2023-03-18T05:37:58;3.75;;;1.77;;
57947;SDS011;43754;56.992;24.292;2023-03-18T05:40:31;8.88;;;2.97;;
57947;SDS011;43754;56.992;24.292;2023-03-18T05:43:12;6.55;;;2.22;;
57947;SDS011;43754;56.992;24.292;2023-03-18T05:45:54;7.32;;;2.80;;
57947;SDS011;43754;56.992;24.292;2023-03-18T05:48:36;17.15;;;7.80;;
57947;SDS011;43754;56.992;24.292;2023-03-18T05:51:11;15.10;;;6.28;;
57947;SDS011;43754;56.992;24.292;2023-03-18T05:53:43;12.82;;;5.95;;
57947;SDS011;43754;56.992;24.292;2023-03-18T05:56:29;6.53;;;2.78;;
57947;SDS011;43754;56.992;24.292;2023-03-18T05:59:04;5.68;;;2.60;;
57947;SDS011;43754;56.992;24.292;2023-03-18T06:01:59;4.88;;;2.03;;
57947;SDS011;43754;56.992;24.292;2023-03-18T06:04:32;5.05;;;1.70;;
57947;SDS011;43754;56.992;24.292;2023-03-18T06:07:05;4.05;;;1.70;;
57947;SDS011;43754;56.992;24.292;2023-03-18T06:09:37;9.57;;;3.50;;
57947;SDS011;43754;56.992;24.292;2023-03-18T06:12:10;9.00;;;3.42;;
57947;SDS011;43754;56.992;24.292;2023-03-18T06:14:42;8.48;;;4.28;;
57947;SDS011;43754;56.992;24.292;2023-03-18T06:17:14;6.15;;;1.88;;
57947;SDS011;43754;56.992;24.292;2023-03-18T06:19:47;7.95;;;2.30;;
57947;SDS011;43754;56.992;24.292;2023-03-18T06:22:20;4.97;;;2.10;;
57947;SDS011;43754;56.992;24.292;2023-03-18T06:24:53;4.30;;;1.63;;
57947;SDS011;43754;56.992;24.292;2023-03-18T06:27:25;3.75;;;1.45;;
57947;SDS011;43754;56.992;24.292;2023-03-18T06:30:01;7.50;;;2.40;;
57947;SDS011;43754;56.992;24.292;2023-03-18T06:32:37;6.30;;;2.05;;
57947;SDS011;43754;56.992;24.292;2023-03-18T06:35:11;6.93;;;2.53;;
57947;SDS011;43754;56.992;24.292;2023-03-18T06:37:45;4.10;;;1.90;;
57947;SDS011;43754;56.992;24.292;2023-03-18T06:40:17;3.58;;;1.83;;
57947;SDS011;43754;56.992;24.292;2023-03-18T06:42:51;3.80;;;2.08;;
57947;SDS011;43754;56.992;24.292;2023-03-18T06:45:32;4.05;;;1.92;;
57947;SDS011;43754;56.992;24.292;2023-03-18T06:48:09;10.30;;;1.63;;
57947;SDS011;43754;56.992;24.292;2023-03-18T06:50:44;6.05;;;2.15;;
57947;SDS011;43754;56.992;24.292;2023-03-18T06:53:25;10.50;;;1.83;;
57947;SDS011;43754;56.992;24.292;2023-03-18T06:55:59;5.63;;;2.50;;
57947;SDS011;43754;56.992;24.292;2023-03-18T06:58:39;4.33;;;1.73;;
57947;SDS011;43754;56.992;24.292;2023-03-18T07:01:12;7.15;;;2.40;;
57947;SDS011;43754;56.992;24.292;2023-03-18T07:03:48;4.60;;;1.45;;
57947;SDS011;43754;56.992;24.292;2023-03-18T07:06:20;4.65;;;2.42;;
57947;SDS011;43754;56.992;24.292;2023-03-18T07:08:54;4.75;;;2.17;;
57947;SDS011;43754;56.992;24.292;2023-03-18T07:11:26;5.63;;;1.98;;
57947;SDS011;43754;56.992;24.292;2023-03-18T07:13:59;5.45;;;2.40;;
57947;SDS011;43754;56.992;24.292;2023-03-18T07:16:35;5.05;;;2.45;;
57947;SDS011;43754;56.992;24.292;2023-03-18T07:19:08;4.40;;;2.30;;
57947;SDS011;43754;56.992;24.292;2023-03-18T07:21:40;6.88;;;2.40;;
57947;SDS011;43754;56.992;24.292;2023-03-18T07:24:14;3.78;;;1.73;;
57947;SDS011;43754;56.992;24.292;2023-03-18T07:26:47;6.20;;;2.15;;
57947;SDS011;43754;56.992;24.292;2023-03-18T07:29:21;4.50;;;2.40;;
57947;SDS011;43754;56.992;24.292;2023-03-18T07:31:53;4.38;;;2.42;;
57947;SDS011;43754;56.992;24.292;2023-03-18T07:34:25;4.50;;;2.00;;
57947;SDS011;43754;56.992;24.292;2023-03-18T07:36:57;6.47;;;2.60;;
57947;SDS011;43754;56.992;24.292;2023-03-18T07:39:31;9.38;;;2.55;;
57947;SDS011;43754;56.992;24.292;2023-03-18T07:42:04;3.65;;;1.90;;
57947;SDS011;43754;56.992;24.292;2023-03-18T07:44:37;5.60;;;2.13;;
57947;SDS011;43754;56.992;24.292;2023-03-18T07:47:09;4.82;;;1.67;;
57947;SDS011;43754;56.992;24.292;2023-03-18T07:49:41;4.80;;;2.17;;
57947;SDS011;43754;56.992;24.292;2023-03-18T07:52:13;5.20;;;2.90;;
57947;SDS011;43754;56.992;24.292;2023-03-18T07:54:47;5.35;;;1.77;;
57947;SDS011;43754;56.992;24.292;2023-03-18T07:57:19;4.43;;;1.88;;
57947;SDS011;43754;56.992;24.292;2023-03-18T07:59:51;6.00;;;2.70;;
57947;SDS011;43754;56.992;24.292;2023-03-18T08:02:23;7.13;;;3.17;;
57947;SDS011;43754;56.992;24.292;2023-03-18T08:04:55;6.70;;;4.25;;
57947;SDS011;43754;56.992;24.292;2023-03-18T08:07:28;5.22;;;2.10;;
57947;SDS011;43754;56.992;24.292;2023-03-18T08:10:01;10.18;;;3.25;;
57947;SDS011;43754;56.992;24.292;2023-03-18T08:12:34;4.32;;;3.08;;
57947;SDS011;43754;56.992;24.292;2023-03-18T08:15:22;3.53;;;2.70;;
57947;SDS011;43754;56.992;24.292;2023-03-18T08:17:56;2.13;;;1.42;;
57947;SDS011;43754;56.992;24.292;2023-03-18T08:20:28;3.80;;;1.65;;
57947;SDS011;43754;56.992;24.292;2023-03-18T08:23:00;3.22;;;1.60;;
57947;SDS011;43754;56.992;24.292;2023-03-18T08:25:35;4.40;;;1.88;;
57947;SDS011;43754;56.992;24.292;2023-03-18T08:28:07;4.60;;;2.10;;
57947;SDS011;43754;56.992;24.292;2023-03-18T08:30:39;4.40;;;1.75;;
57947;SDS011;43754;56.992;24.292;2023-03-18T08:33:11;4.28;;;2.20;;
57947;SDS011;43754;56.992;24.292;2023-03-18T08:35:44;3.55;;;1.35;;
57947;SDS011;43754;56.992;24.292;2023-03-18T08:38:17;3.45;;;1.70;;
57947;SDS011;43754;56.992;24.292;2023-03-18T08:40:51;4.15;;;1.98;;
57947;SDS011;43754;56.992;24.292;2023-03-18T08:43:23;3.72;;;1.48;;
57947;SDS011;43754;56.992;24.292;2023-03-18T08:45:56;3.08;;;1.67;;
57947;SDS011;43754;56.992;24.292;2023-03-18T08:48:29;3.90;;;1.95;;
57947;SDS011;43754;56.992;24.292;2023-03-18T08:51:02;4.45;;;1.42;;
57947;SDS011;43754;56.992;24.292;2023-03-18T08:53:35;3.25;;;1.50;;
57947;SDS011;43754;56.992;24.292;2023-03-18T08:56:08;2.17;;;1.33;;
57947;SDS011;43754;56.992;24.292;2023-03-18T08:58:40;3.03;;;1.08;;
57947;SDS011;43754;56.992;24.292;2023-03-18T09:01:12;4.30;;;1.55;;
57947;SDS011;43754;56.992;24.292;2023-03-18T09:03:44;2.80;;;1.45;;
57947;SDS011;43754;56.992;24.292;2023-03-18T09:06:17;2.85;;;1.20;;
57947;SDS011;43754;56.992;24.292;2023-03-18T09:08:49;2.85;;;1.30;;
57947;SDS011;43754;56.992;24.292;2023-03-18T09:11:23;3.55;;;1.52;;
57947;SDS011;43754;56.992;24.292;2023-03-18T09:13:57;4.55;;;1.48;;
57947;SDS011;43754;56.992;24.292;2023-03-18T09:16:29;2.67;;;1.50;;
57947;SDS011;43754;56.992;24.292;2023-03-18T09:19:01;2.70;;;1.27;;
57947;SDS011;43754;56.992;24.292;2023-03-18T09:21:33;5.20;;;1.05;;
57947;SDS011;43754;56.992;24.292;2023-03-18T09:24:06;2.47;;;1.25;;
57947;SDS011;43754;56.992;24.292;2023-03-18T09:26:40;3.13;;;1.10;;
57947;SDS011;43754;56.992;24.292;2023-03-18T09:29:12;5.45;;;2.88;;
57947;SDS011;43754;56.992;24.292;2023-03-18T09:31:44;4.50;;;1.40;;
57947;SDS011;43754;56.992;24.292;2023-03-18T09:34:17;3.08;;;1.15;;
57947;SDS011;43754;56.992;24.292;2023-03-18T09:36:49;1.70;;;1.38;;
57947;SDS011;43754;56.992;24.292;2023-03-18T09:39:22;3.50;;;1.65;;
57947;SDS011;43754;56.992;24.292;2023-03-18T09:42:01;3.33;;;1.40;;
57947;SDS011;43754;56.992;24.292;2023-03-18T09:44:43;3.25;;;1.80;;
57947;SDS011;43754;56.992;24.292;2023-03-18T09:47:19;3.25;;;1.40;;
57947;SDS011;43754;56.992;24.292;2023-03-18T09:50:08;2.97;;;1.70;;
57947;SDS011;43754;56.992;24.292;2023-03-18T09:52:53;2.78;;;1.50;;
57947;SDS011;43754;56.992;24.292;2023-03-18T09:55:36;3.90;;;1.38;;
57947;SDS011;43754;56.992;24.292;2023-03-18T09:58:16;4.10;;;1.40;;
57947;SDS011;43754;56.992;24.292;2023-03-18T10:03:30;3.50;;;1.23;;
57947;SDS011;43754;56.992;24.292;2023-03-18T10:06:05;2.85;;;1.45;;
57947;SDS011;43754;56.992;24.292;2023-03-18T10:08:48;3.75;;;1.52;;
57947;SDS011;43754;56.992;24.292;2023-03-18T10:11:29;3.72;;;1.58;;
57947;SDS011;43754;56.992;24.292;2023-03-18T10:14:17;6.47;;;2.70;;
57947;SDS011;43754;56.992;24.292;2023-03-18T10:17:10;5.18;;;2.67;;
57947;SDS011;43754;56.992;24.292;2023-03-18T10:19:49;4.32;;;2.80;;
57947;SDS011;43754;56.992;24.292;2023-03-18T10:22:36;4.82;;;2.45;;
57947;SDS011;43754;56.992;24.292;2023-03-18T10:25:30;2.97;;;1.45;;
57947;SDS011;43754;56.992;24.292;2023-03-18T10:31:16;3.03;;;1.33;;
57947;SDS011;43754;56.992;24.292;2023-03-18T10:33:57;4.18;;;1.50;;
57947;SDS011;43754;56.992;24.292;2023-03-18T10:36:34;2.22;;;1.15;;
57947;SDS011;43754;56.992;24.292;2023-03-18T10:39:11;4.78;;;1.70;;
57947;SDS011;43754;56.992;24.292;2023-03-18T10:41:46;1.90;;;1.00;;
57947;SDS011;43754;56.992;24.292;2023-03-18T10:44:23;2.85;;;1.10;;
57947;SDS011;43754;56.992;24.292;2023-03-18T10:47:01;2.55;;;1.30;;
57947;SDS011;43754;56.992;24.292;2023-03-18T10:49:41;6.60;;;1.45;;
57947;SDS011;43754;56.992;24.292;2023-03-18T10:52:18;4.22;;;1.38;;
57947;SDS011;43754;56.992;24.292;2023-03-18T10:54:58;2.38;;;1.30;;
57947;SDS011;43754;56.992;24.292;2023-03-18T10:57:30;4.80;;;1.48;;
57947;SDS011;43754;56.992;24.292;2023-03-18T11:00:04;2.80;;;1.25;;
57947;SDS011;43754;56.992;24.292;2023-03-18T11:02:42;4.20;;;1.33;;
57947;SDS011;43754;56.992;24.292;2023-03-18T11:05:14;7.00;;;1.00;;
57947;SDS011;43754;56.992;24.292;2023-03-18T11:07:54;1.87;;;0.90;;
57947;SDS011;43754;56.992;24.292;2023-03-18T11:10:30;4.63;;;1.27;;
57947;SDS011;43754;56.992;24.292;2023-03-18T11:13:05;3.88;;;1.45;;
57947;SDS011;43754;56.992;24.292;2023-03-18T11:15:37;3.17;;;1.50;;
57947;SDS011;43754;56.992;24.292;2023-03-18T11:18:16;5.78;;;2.10;;
57947;SDS011;43754;56.992;24.292;2023-03-18T11:20:53;5.22;;;1.50;;
57947;SDS011;43754;56.992;24.292;2023-03-18T11:23:31;4.53;;;1.67;;
57947;SDS011;43754;56.992;24.292;2023-03-18T11:26:20;3.95;;;1.48;;
57947;SDS011;43754;56.992;24.292;2023-03-18T11:28:53;6.00;;;1.55;;
57947;SDS011;43754;56.992;24.292;2023-03-18T11:31:26;5.43;;;1.50;;
57947;SDS011;43754;56.992;24.292;2023-03-18T11:34:00;2.08;;;1.40;;
57947;SDS011;43754;56.992;24.292;2023-03-18T11:36:39;3.92;;;1.63;;
57947;SDS011;43754;56.992;24.292;2023-03-18T11:39:12;3.90;;;1.20;;
57947;SDS011;43754;56.992;24.292;2023-03-18T11:41:47;2.97;;;1.52;;
57947;SDS011;43754;56.992;24.292;2023-03-18T11:44:23;5.22;;;1.02;;
57947;SDS011;43754;56.992;24.292;2023-03-18T11:47:00;4.15;;;1.73;;
57947;SDS011;43754;56.992;24.292;2023-03-18T11:49:37;3.30;;;1.33;;
57947;SDS011;43754;56.992;24.292;2023-03-18T11:52:14;3.30;;;1.63;;
57947;SDS011;43754;56.992;24.292;2023-03-18T11:55:08;3.55;;;1.75;;
57947;SDS011;43754;56.992;24.292;2023-03-18T11:58:03;3.47;;;1.40;;
57947;SDS011;43754;56.992;24.292;2023-03-18T12:00:47;3.85;;;1.67;;
57947;SDS011;43754;56.992;24.292;2023-03-18T12:03:32;4.28;;;1.60;;
57947;SDS011;43754;56.992;24.292;2023-03-18T12:06:26;2.35;;;1.30;;
57947;SDS011;43754;56.992;24.292;2023-03-18T12:09:02;2.38;;;1.25;;
57947;SDS011;43754;56.992;24.292;2023-03-18T12:11:52;3.80;;;1.02;;
57947;SDS011;43754;56.992;24.292;2023-03-18T12:14:33;2.60;;;1.25;;
57947;SDS011;43754;56.992;24.292;2023-03-18T12:17:15;2.08;;;1.27;;
57947;SDS011;43754;56.992;24.292;2023-03-18T12:19:59;1.95;;;1.25;;
57947;SDS011;43754;56.992;24.292;2023-03-18T12:23:01;1.90;;;1.17;;
57947;SDS011;43754;56.992;24.292;2023-03-18T12:25:41;1.25;;;1.00;;
57947;SDS011;43754;56.992;24.292;2023-03-18T12:28:29;3.60;;;1.20;;
57947;SDS011;43754;56.992;24.292;2023-03-18T12:31:18;2.50;;;1.63;;
57947;SDS011;43754;56.992;24.292;2023-03-18T12:34:08;2.15;;;1.10;;
57947;SDS011;43754;56.992;24.292;2023-03-18T12:36:55;3.38;;;1.55;;
57947;SDS011;43754;56.992;24.292;2023-03-18T12:39:48;2.45;;;1.42;;
57947;SDS011;43754;56.992;24.292;2023-03-18T12:42:32;1.40;;;1.02;;
57947;SDS011;43754;56.992;24.292;2023-03-18T12:45:18;2.35;;;1.13;;
57947;SDS011;43754;56.992;24.292;2023-03-18T12:47:55;2.70;;;1.33;;
57947;SDS011;43754;56.992;24.292;2023-03-18T12:50:32;2.95;;;1.25;;
57947;SDS011;43754;56.992;24.292;2023-03-18T12:53:10;3.00;;;1.40;;
57947;SDS011;43754;56.992;24.292;2023-03-18T12:55:49;4.28;;;1.30;;
57947;SDS011;43754;56.992;24.292;2023-03-18T12:58:26;2.25;;;1.42;;
57947;SDS011;43754;56.992;24.292;2023-03-18T13:01:03;2.15;;;1.17;;
57947;SDS011;43754;56.992;24.292;2023-03-18T13:03:39;3.85;;;1.48;;
57947;SDS011;43754;56.992;24.292;2023-03-18T13:06:14;3.58;;;1.60;;
57947;SDS011;43754;56.992;24.292;2023-03-18T13:08:53;2.95;;;1.33;;
57947;SDS011;43754;56.992;24.292;2023-03-18T13:11:42;5.55;;;1.73;;
57947;SDS011;43754;56.992;24.292;2023-03-18T13:14:41;3.95;;;1.77;;
57947;SDS011;43754;56.992;24.292;2023-03-18T13:17:19;2.60;;;1.42;;
57947;SDS011;43754;56.992;24.292;2023-03-18T13:19:56;1.88;;;1.25;;
57947;SDS011;43754;56.992;24.292;2023-03-18T13:22:47;4.25;;;1.50;;
57947;SDS011;43754;56.992;24.292;2023-03-18T13:25:32;2.55;;;1.20;;
57947;SDS011;43754;56.992;24.292;2023-03-18T13:28:25;1.80;;;1.10;;
57947;SDS011;43754;56.992;24.292;2023-03-18T13:31:13;3.47;;;1.98;;
57947;SDS011;43754;56.992;24.292;2023-03-18T13:34:02;2.55;;;1.45;;
57947;SDS011;43754;56.992;24.292;2023-03-18T13:37:00;3.10;;;1.75;;
57947;SDS011;43754;56.992;24.292;2023-03-18T13:42:48;7.30;;;2.67;;
57947;SDS011;43754;56.992;24.292;2023-03-18T13:45:24;2.28;;;1.50;;
57947;SDS011;43754;56.992;24.292;2023-03-18T13:48:04;3.70;;;1.55;;
57947;SDS011;43754;56.992;24.292;2023-03-18T13:50:39;3.17;;;2.00;;
57947;SDS011;43754;56.992;24.292;2023-03-18T13:53:21;3.70;;;1.90;;
57947;SDS011;43754;56.992;24.292;2023-03-18T13:56:00;3.58;;;1.90;;
57947;SDS011;43754;56.992;24.292;2023-03-18T13:58:34;4.82;;;2.60;;
57947;SDS011;43754;56.992;24.292;2023-03-18T14:01:27;3.03;;;2.00;;
57947;SDS011;43754;56.992;24.292;2023-03-18T14:04:19;4.75;;;1.80;;
57947;SDS011;43754;56.992;24.292;2023-03-18T14:07:12;5.63;;;2.08;;
57947;SDS011;43754;56.992;24.292;2023-03-18T14:09:47;3.13;;;2.10;;
57947;SDS011;43754;56.992;24.292;2023-03-18T14:12:22;2.80;;;1.75;;
57947;SDS011;43754;56.992;24.292;2023-03-18T14:15:34;2.53;;;1.65;;
57947;SDS011;43754;56.992;24.292;2023-03-18T14:18:20;2.20;;;1.60;;
57947;SDS011;43754;56.992;24.292;2023-03-18T14:20:59;2.58;;;1.83;;
57947;SDS011;43754;56.992;24.292;2023-03-18T14:23:37;2.72;;;2.10;;
57947;SDS011;43754;56.992;24.292;2023-03-18T14:26:16;2.22;;;1.80;;
57947;SDS011;43754;56.992;24.292;2023-03-18T14:28:54;2.72;;;1.58;;
57947;SDS011;43754;56.992;24.292;2023-03-18T14:31:32;3.13;;;1.90;;
57947;SDS011;43754;56.992;24.292;2023-03-18T14:34:22;3.42;;;1.95;;
57947;SDS011;43754;56.992;24.292;2023-03-18T14:40:03;4.57;;;2.28;;
57947;SDS011;43754;56.992;24.292;2023-03-18T14:42:42;3.92;;;2.45;;
57947;SDS011;43754;56.992;24.292;2023-03-18T14:45:20;3.20;;;2.10;;
57947;SDS011;43754;56.992;24.292;2023-03-18T14:47:55;3.72;;;1.95;;
57947;SDS011;43754;56.992;24.292;2023-03-18T14:50:33;5.75;;;2.92;;
57947;SDS011;43754;56.992;24.292;2023-03-18T14:53:11;3.97;;;2.95;;
57947;SDS011;43754;56.992;24.292;2023-03-18T14:55:51;6.32;;;3.28;;
57947;SDS011;43754;56.992;24.292;2023-03-18T14:58:27;5.97;;;3.38;;
57947;SDS011;43754;56.992;24.292;2023-03-18T15:01:00;7.38;;;3.38;;
57947;SDS011;43754;56.992;24.292;2023-03-18T15:03:36;5.03;;;3.72;;
57947;SDS011;43754;56.992;24.292;2023-03-18T15:06:14;5.07;;;3.10;;
57947;SDS011;43754;56.992;24.292;2023-03-18T15:08:50;3.70;;;2.30;;
57947;SDS011;43754;56.992;24.292;2023-03-18T15:11:27;4.07;;;2.30;;
57947;SDS011;43754;56.992;24.292;2023-03-18T15:14:00;4.97;;;2.75;;
57947;SDS011;43754;56.992;24.292;2023-03-18T15:16:32;4.30;;;2.72;;
57947;SDS011;43754;56.992;24.292;2023-03-18T15:19:09;3.53;;;2.63;;
57947;SDS011;43754;56.992;24.292;2023-03-18T15:21:43;4.45;;;2.80;;
57947;SDS011;43754;56.992;24.292;2023-03-18T15:24:16;4.95;;;2.78;;
57947;SDS011;43754;56.992;24.292;2023-03-18T15:26:54;4.55;;;2.70;;
57947;SDS011;43754;56.992;24.292;2023-03-18T15:29:28;3.75;;;2.10;;
57947;SDS011;43754;56.992;24.292;2023-03-18T15:32:07;5.10;;;2.78;;
57947;SDS011;43754;56.992;24.292;2023-03-18T15:34:50;3.13;;;2.30;;
57947;SDS011;43754;56.992;24.292;2023-03-18T15:37:32;4.57;;;2.50;;
57947;SDS011;43754;56.992;24.292;2023-03-18T15:40:14;6.00;;;2.70;;
57947;SDS011;43754;56.992;24.292;2023-03-18T15:45:43;6.63;;;3.88;;